createdAt,value
2019-04-21T00:02:26.481Z,72.35
2019-04-21T00:05:16.453Z,73.47
2019-04-21T00:07:50.713Z,73.30
2019-04-21T00:10:27.183Z,72.55
2019-04-21T00:12:57.125Z,72.52
2019-04-21T00:15:24.187Z,73.04
2019-04-21T00:17:57.504Z,72.11
2019-04-21T00:20:37.078Z,71.90
2019-04-21T00:23:19.866Z,72.60
2019-04-21T00:25:48.778Z,71.85
2019-04-21T00:28:37.763Z,73.86
2019-04-21T00:31:08.108Z,73.18
2019-04-21T00:33:29.957Z,72.72
2019-04-21T00:36:05.388Z,73.54
2019-04-21T00:39:07.173Z,74.67
2019-04-21T00:41:32.045Z,75.07
2019-04-21T00:43:57.290Z,74.79
2019-04-21T00:46:37.275Z,75.08
2019-04-21T00:49:10.440Z,75.99
2019-04-21T00:52:07.544Z,75.49
2019-04-21T00:54:43.877Z,75.51
2019-04-21T00:57:11.531Z,77.10
2019-04-21T00:59:48.312Z,76.25
2019-04-21T01:02:19.262Z,76.46
2019-04-21T01:05:00.396Z,76.21
2019-04-21T01:07:31.440Z,74.57
2019-04-21T01:09:58.317Z,76.63
2019-04-21T01:12:42.025Z,77.18
2019-04-21T01:15:26.378Z,78.18
2019-04-21T01:17:51.911Z,78.57
2019-04-21T01:20:16.082Z,76.83
2019-04-21T01:22:40.595Z,76.67
2019-04-21T01:25:20.370Z,76.61
2019-04-21T01:28:09.113Z,78.18
2019-04-21T01:30:39.875Z,77.91
2019-04-21T01:33:21.671Z,76.00
2019-04-21T01:35:53.703Z,76.89
2019-04-21T01:38:35.742Z,77.24
2019-04-21T01:41:08.610Z,78.01
2019-04-21T01:43:34.563Z,78.83
2019-04-21T01:46:10.699Z,78.73
2019-04-21T01:48:42.802Z,80.08
2019-04-21T01:51:22.566Z,79.16
2019-04-21T01:54:33.135Z,79.89
2019-04-21T01:57:11.438Z,79.20
2019-04-21T01:59:40.192Z,80.45
2019-04-21T02:02:23.579Z,81.35
2019-04-21T02:05:05.770Z,80.84
2019-04-21T02:07:34.009Z,80.29
2019-04-21T02:10:11.136Z,78.62
2019-04-21T02:12:44.506Z,78.75
2019-04-21T02:15:36.123Z,80.05
2019-04-21T02:17:56.340Z,79.39
2019-04-21T02:20:20.709Z,77.61
2019-04-21T02:23:26.368Z,78.15
2019-04-21T02:25:38.520Z,78.91
2019-04-21T02:28:19.326Z,77.49
2019-04-21T02:31:05.947Z,75.71
2019-04-21T02:33:36.186Z,77.76
2019-04-21T02:36:26.608Z,79.17
2019-04-21T02:38:46.189Z,79.95
2019-04-21T02:41:12.816Z,78.52
2019-04-21T02:44:04.208Z,79.93
2019-04-21T02:46:42.532Z,79.87
2019-04-21T02:49:04.216Z,80.20
2019-04-21T02:56:56.924Z,82.49
2019-04-21T03:00:06.481Z,80.71
2019-04-21T03:02:58.628Z,82.07
2019-04-21T03:05:58.739Z,81.62
2019-04-21T03:11:10.979Z,84.59
2019-04-21T03:13:46.997Z,84.11
2019-04-21T03:16:23.030Z,83.73
2019-04-21T03:18:56.625Z,81.86
2019-04-21T03:21:34.921Z,82.61
2019-04-21T03:24:08.078Z,81.67
2019-04-21T03:26:55.255Z,82.72
2019-04-21T03:29:20.219Z,83.21
2019-04-21T03:32:25.722Z,84.16
2019-04-21T03:39:48.872Z,84.43
2019-04-21T03:42:34.808Z,83.38
2019-04-21T03:52:48.333Z,84.83
2019-04-21T03:58:29.548Z,87.13
2019-04-21T04:04:15.059Z,86.81
2019-04-21T04:07:06.009Z,85.86
2019-04-21T04:14:40.175Z,87.16
2019-04-21T04:17:14.567Z,86.66
2019-04-21T04:19:44.683Z,86.53
2019-04-21T04:22:19.457Z,86.92
2019-04-21T04:24:58.870Z,87.40
2019-04-21T04:30:07.984Z,86.51
2019-04-21T04:32:38.586Z,87.09
2019-04-21T04:35:10.845Z,88.08
2019-04-21T04:38:04.616Z,87.50
2019-04-21T04:40:48.249Z,87.94
2019-04-21T04:43:18.649Z,85.01
2019-04-21T04:48:41.959Z,83.60
2019-04-21T04:53:47.149Z,85.32
2019-04-21T05:09:16.384Z,82.63
2019-04-21T05:11:48.761Z,81.39
2019-04-21T05:14:21.302Z,83.67
2019-04-21T05:17:24.928Z,83.23
2019-04-21T05:19:34.246Z,82.37
2019-04-21T05:22:12.165Z,81.73
2019-04-21T05:24:33.324Z,79.98
2019-04-21T05:27:07.581Z,81.68
2019-04-21T05:30:01.887Z,80.86
2019-04-21T05:32:40.140Z,80.72
2019-04-21T05:35:16.967Z,82.56
2019-04-21T05:37:55.286Z,80.74
2019-04-21T05:40:27.413Z,80.24
2019-04-21T05:43:10.537Z,83.51
2019-04-21T05:48:35.126Z,81.73
2019-04-21T05:51:03.585Z,84.13
2019-04-21T05:53:46.743Z,83.24
2019-04-21T05:56:22.941Z,84.44
2019-04-21T05:59:00.649Z,84.46
2019-04-21T06:01:37.791Z,84.03
2019-04-21T06:04:16.892Z,83.27
2019-04-21T06:06:55.491Z,82.62
2019-04-21T06:09:19.046Z,82.52
2019-04-21T06:11:55.627Z,81.85
2019-04-21T06:14:41.351Z,80.97
2019-04-21T06:17:13.128Z,80.31
2019-04-21T06:22:14.903Z,79.78
2019-04-21T06:25:23.923Z,78.54
2019-04-21T06:27:44.676Z,78.48
2019-04-21T06:30:03.399Z,77.90
2019-04-21T06:35:52.847Z,76.55
2019-04-21T06:38:13.819Z,76.17
2019-04-21T06:40:48.306Z,75.57
2019-04-21T06:45:54.230Z,73.97
2019-04-21T06:48:39.006Z,73.46
2019-04-21T06:51:10.554Z,73.42
2019-04-21T06:53:48.715Z,70.40
2019-04-21T06:56:27.095Z,72.71
2019-04-21T06:58:51.443Z,70.88
2019-04-21T07:01:30.958Z,69.91
2019-04-21T07:04:13.390Z,69.17
2019-04-21T07:06:45.561Z,68.76
2019-04-21T07:11:42.203Z,65.37
2019-04-21T07:14:30.075Z,62.67
2019-04-21T07:17:06.381Z,62.75
2019-04-21T07:19:41.026Z,62.69
2019-04-21T07:22:15.829Z,61.73
2019-04-21T07:24:45.823Z,60.77
2019-04-21T07:27:23.986Z,60.92
2019-04-21T07:30:00.517Z,59.62
2019-04-21T07:32:49.735Z,58.63
2019-04-21T07:37:40.825Z,57.05
2019-04-21T07:40:09.124Z,56.64
2019-04-21T07:42:44.125Z,57.14
2019-04-21T07:45:16.649Z,56.10
2019-04-21T07:48:01.736Z,55.79
2019-04-21T07:50:57.463Z,55.83
2019-04-21T07:53:41.916Z,53.50
2019-04-21T07:55:59.436Z,54.01
2019-04-21T07:58:53.605Z,53.28
2019-04-21T08:01:26.887Z,52.53
2019-04-21T08:04:03.360Z,51.53
2019-04-21T08:06:36.625Z,51.90
2019-04-21T08:09:08.443Z,51.08
2019-04-21T08:11:38.328Z,49.58
2019-04-21T08:14:17.775Z,48.17
2019-04-21T08:16:58.488Z,48.22
2019-04-21T08:19:31.193Z,46.96
2019-04-21T08:24:47.311Z,47.25
2019-04-21T08:27:22.261Z,46.73
2019-04-21T08:29:54.912Z,46.77
2019-04-21T08:32:42.331Z,43.81
2019-04-21T08:35:22.755Z,43.11
2019-04-21T08:37:31.437Z,42.35
2019-04-21T08:40:18.745Z,42.60
2019-04-21T08:42:47.738Z,41.31
2019-04-21T08:45:22.015Z,42.15
2019-04-21T08:47:55.359Z,41.51
2019-04-21T08:50:27.918Z,40.55
2019-04-21T08:53:07.555Z,39.70
2019-04-21T08:56:07.573Z,39.18
2019-04-21T08:58:54.416Z,38.54
2019-04-21T09:01:30.350Z,39.14
2019-04-21T09:04:06.114Z,37.30
2019-04-21T09:06:56.028Z,37.47
2019-04-21T09:09:16.680Z,38.39
2019-04-21T09:11:54.257Z,36.09
2019-04-21T09:14:25.470Z,36.90
2019-04-21T09:16:56.743Z,36.48
2019-04-21T09:19:44.503Z,36.92
2019-04-21T09:22:13.292Z,36.25
2019-04-21T09:24:50.152Z,35.03
2019-04-21T09:27:23.209Z,35.74
2019-04-21T09:29:47.933Z,36.36
2019-04-21T09:32:18.368Z,34.80
2019-04-21T09:34:49.599Z,34.25
2019-04-21T09:37:36.670Z,34.00
2019-04-21T09:40:00.902Z,33.89
2019-04-21T09:42:41.010Z,33.56
2019-04-21T09:45:11.777Z,34.35
2019-04-21T09:47:52.267Z,33.89
2019-04-21T09:50:19.858Z,32.71
2019-04-21T09:52:59.751Z,33.21
2019-04-21T09:55:39.568Z,34.42
2019-04-21T09:58:14.771Z,32.10
2019-04-21T10:00:51.040Z,32.59
2019-04-21T10:03:16.238Z,33.01
2019-04-21T10:05:52.110Z,33.40
2019-04-21T10:08:27.302Z,32.22
2019-04-21T10:11:07.678Z,32.21
2019-04-21T10:13:41.946Z,31.93
2019-04-21T10:16:26.088Z,31.50
2019-04-21T10:19:04.590Z,31.88
2019-04-21T10:21:50.076Z,31.24
2019-04-21T10:24:24.478Z,31.84
2019-04-21T10:26:59.005Z,31.16
2019-04-21T10:29:34.845Z,30.98
2019-04-21T10:32:09.191Z,32.10
2019-04-21T10:34:43.199Z,31.98
2019-04-21T10:37:18.854Z,32.15
2019-04-21T10:39:53.817Z,31.35
2019-04-21T10:42:28.865Z,31.58
2019-04-21T10:45:01.541Z,31.39
2019-04-21T10:47:34.608Z,30.94
2019-04-21T10:50:08.763Z,30.84
2019-04-21T10:52:58.859Z,31.46
2019-04-21T10:55:48.659Z,30.52
2019-04-21T10:58:28.881Z,30.60
2019-04-21T11:01:19.232Z,31.07
2019-04-21T11:04:32.966Z,30.69
2019-04-21T11:07:14.520Z,29.90
2019-04-21T11:09:46.328Z,32.08
2019-04-21T11:12:19.856Z,30.21
2019-04-21T11:14:53.606Z,30.57
2019-04-21T11:17:30.175Z,29.37
2019-04-21T11:20:04.656Z,29.91
2019-04-21T11:22:40.050Z,30.40
2019-04-21T11:25:12.905Z,29.17
2019-04-21T11:27:49.066Z,30.20
2019-04-21T11:30:23.240Z,29.37
2019-04-21T11:32:59.624Z,28.91
2019-04-21T11:35:35.133Z,29.77
2019-04-21T11:38:18.112Z,28.61
2019-04-21T11:40:47.786Z,29.68
2019-04-21T11:43:22.035Z,30.05
2019-04-21T11:45:58.141Z,29.79
2019-04-21T11:48:32.635Z,29.07
2019-04-21T11:51:07.036Z,30.13
2019-04-21T11:53:41.100Z,29.67
2019-04-21T11:56:16.719Z,30.77
2019-04-21T11:58:51.838Z,28.09
2019-04-21T12:01:25.618Z,28.87
2019-04-21T12:03:59.993Z,29.02
2019-04-21T12:06:38.609Z,29.38
2019-04-21T12:09:09.954Z,29.08
2019-04-21T12:11:45.245Z,28.09
2019-04-21T12:14:18.292Z,27.94
2019-04-21T12:16:53.111Z,28.47
2019-04-21T12:19:27.002Z,28.32
2019-04-21T12:22:09.724Z,28.63
2019-04-21T12:24:36.784Z,28.85
2019-04-21T12:27:09.947Z,29.02
2019-04-21T12:29:44.054Z,28.69
2019-04-21T12:32:48.593Z,27.88
2019-04-21T12:35:22.263Z,27.67
2019-04-21T12:37:56.408Z,28.05
2019-04-21T12:40:30.526Z,27.92
2019-04-21T12:43:04.274Z,28.06
2019-04-21T12:45:37.866Z,28.07
2019-04-21T12:48:11.293Z,26.72
2019-04-21T12:50:45.812Z,27.47
2019-04-21T12:53:19.342Z,27.88
2019-04-21T12:55:53.812Z,28.20
2019-04-21T12:58:26.744Z,27.85
2019-04-21T13:01:00.923Z,27.73
2019-04-21T13:03:34.113Z,27.55
2019-04-21T13:06:07.587Z,27.69
2019-04-21T13:08:51.839Z,27.28
2019-04-21T13:11:17.004Z,26.95
2019-04-21T13:13:50.177Z,27.04
2019-04-21T13:16:23.501Z,27.16
2019-04-21T13:18:57.516Z,27.62
2019-04-21T13:21:31.914Z,26.40
2019-04-21T13:24:05.185Z,27.47
2019-04-21T13:26:45.619Z,27.23
2019-04-21T13:29:16.403Z,26.78
2019-04-21T13:31:48.462Z,26.25
2019-04-21T13:34:22.174Z,28.79
2019-04-21T13:36:54.931Z,27.84
2019-04-21T13:40:20.757Z,27.65
2019-04-21T13:42:41.965Z,27.52
2019-04-21T13:45:12.209Z,27.46
2019-04-21T13:47:46.272Z,26.84
2019-04-21T13:50:21.387Z,28.84
2019-04-21T13:52:56.438Z,28.47
2019-04-21T13:55:29.756Z,28.36
2019-04-21T13:58:02.274Z,27.71
2019-04-21T14:00:35.851Z,28.22
2019-04-21T14:03:10.447Z,29.10
2019-04-21T14:05:44.427Z,27.77
2019-04-21T14:08:18.857Z,29.01
2019-04-21T14:10:53.588Z,28.32
2019-04-21T14:13:27.111Z,28.43
2019-04-21T14:16:00.502Z,28.39
2019-04-21T14:18:34.225Z,29.21
2019-04-21T14:21:07.276Z,28.57
2019-04-21T14:23:44.642Z,28.53
2019-04-21T14:26:16.130Z,27.46
2019-04-21T14:28:49.512Z,29.42
2019-04-21T14:31:22.474Z,28.50
2019-04-21T14:33:56.221Z,28.97
2019-04-21T14:36:29.012Z,28.69
2019-04-21T14:39:02.859Z,27.98
2019-04-21T14:41:35.909Z,28.01
2019-04-21T14:44:09.251Z,27.29
2019-04-21T14:47:07.033Z,27.90
2019-04-21T14:50:02.965Z,27.28
2019-04-21T14:52:39.070Z,29.08
2019-04-21T14:55:24.943Z,28.36
2019-04-21T14:57:58.993Z,29.26
2019-04-21T15:00:51.396Z,28.12
2019-04-21T15:03:25.840Z,29.57
2019-04-21T15:06:01.119Z,28.32
2019-04-21T15:08:35.317Z,29.31
2019-04-21T15:11:08.668Z,28.50
2019-04-21T15:13:41.798Z,27.71
2019-04-21T15:16:15.070Z,27.87
2019-04-21T15:18:48.593Z,27.85
2019-04-21T15:21:21.714Z,27.36
2019-04-21T15:24:02.546Z,28.19
2019-04-21T15:26:38.071Z,29.14
2019-04-21T15:31:56.704Z,28.15
2019-04-21T15:34:29.895Z,28.07
2019-04-21T15:37:04.014Z,27.71
2019-04-21T15:39:38.346Z,28.27
2019-04-21T15:42:10.825Z,27.71
2019-04-21T15:44:44.697Z,28.71
2019-04-21T15:47:17.851Z,28.57
2019-04-21T15:50:00.806Z,28.56
2019-04-21T15:52:29.957Z,29.15
2019-04-21T15:55:06.871Z,28.77
2019-04-21T15:58:08.072Z,28.40
2019-04-21T16:00:52.748Z,28.61
2019-04-21T16:03:26.797Z,28.99
2019-04-21T16:05:59.564Z,29.15
2019-04-21T16:08:33.337Z,30.19
2019-04-21T16:11:08.107Z,29.25
2019-04-21T16:13:41.658Z,29.54
2019-04-21T16:16:16.611Z,29.47
2019-04-21T16:18:50.038Z,29.61
2019-04-21T16:21:44.469Z,29.19
2019-04-21T16:24:18.375Z,30.83
2019-04-21T16:26:50.994Z,30.42
2019-04-21T16:29:25.015Z,30.46
2019-04-21T16:31:59.500Z,29.90
2019-04-21T16:34:40.103Z,29.82
2019-04-21T16:37:07.956Z,29.90
2019-04-21T16:39:41.260Z,29.84
2019-04-21T16:42:16.242Z,30.15
2019-04-21T16:44:49.921Z,29.64
2019-04-21T16:47:22.307Z,30.21
2019-04-21T16:49:55.912Z,30.14
2019-04-21T16:52:40.295Z,30.62
2019-04-21T16:55:41.679Z,30.45
2019-04-21T16:58:30.774Z,29.93
2019-04-21T17:01:10.971Z,29.71
2019-04-21T17:03:42.457Z,29.58
2019-04-21T17:06:17.356Z,29.42
2019-04-21T17:08:52.639Z,29.76
2019-04-21T17:11:30.818Z,29.68
2019-04-21T17:14:00.549Z,30.20
2019-04-21T17:16:57.680Z,30.03
2019-04-21T17:19:14.535Z,30.30
2019-04-21T17:21:43.715Z,30.74
2019-04-21T17:24:16.749Z,31.55
2019-04-21T17:26:51.428Z,32.09
2019-04-21T17:29:24.946Z,31.90
2019-04-21T17:32:02.945Z,31.80
2019-04-21T17:34:36.075Z,32.68
2019-04-21T17:37:09.328Z,32.51
2019-04-21T17:39:42.979Z,32.39
2019-04-21T17:42:27.503Z,32.61
2019-04-21T17:44:52.981Z,32.86
2019-04-21T17:47:41.559Z,33.03
2019-04-21T17:50:25.413Z,32.85
2019-04-21T17:53:06.495Z,33.33
2019-04-21T17:55:40.153Z,33.71
2019-04-21T17:58:26.985Z,33.62
2019-04-21T18:01:12.984Z,33.58
2019-04-21T18:03:52.271Z,33.73
2019-04-21T18:06:07.485Z,34.41
2019-04-21T18:08:47.860Z,33.94
2019-04-21T18:11:12.564Z,33.92
2019-04-21T18:13:39.653Z,34.47
2019-04-21T18:16:22.974Z,34.67
2019-04-21T18:18:48.712Z,34.97
2019-04-21T18:21:30.583Z,35.54
2019-04-21T18:24:14.702Z,35.67
2019-04-21T18:26:50.654Z,35.76
2019-04-21T18:29:16.100Z,36.09
2019-04-21T18:31:51.957Z,36.69
2019-04-21T18:34:56.265Z,36.44
2019-04-21T18:38:08.053Z,36.63
2019-04-21T18:40:37.642Z,36.79
2019-04-21T18:46:35.687Z,38.19
2019-04-21T18:48:57.088Z,39.34
2019-04-21T18:51:57.331Z,40.15
2019-04-21T18:54:41.234Z,40.66
2019-04-21T18:57:07.663Z,42.00
2019-04-21T18:59:39.854Z,42.70
2019-04-21T19:02:13.654Z,42.27
2019-04-21T19:04:48.257Z,43.50
2019-04-21T19:07:37.740Z,43.52
2019-04-21T19:10:21.995Z,44.51
2019-04-21T19:15:19.992Z,44.40
2019-04-21T19:18:27.792Z,45.42
2019-04-21T19:20:34.757Z,45.14
2019-04-21T19:23:04.577Z,46.16
2019-04-21T19:25:49.235Z,46.52
2019-04-21T19:28:17.909Z,47.54
2019-04-21T19:30:57.676Z,48.12
2019-04-21T19:33:24.396Z,47.95
2019-04-21T19:35:45.592Z,48.45
2019-04-21T19:38:30.596Z,49.54
2019-04-21T19:41:10.379Z,49.73
2019-04-21T19:43:47.087Z,49.86
2019-04-21T19:46:18.028Z,50.48
2019-04-21T19:49:07.035Z,50.73
2019-04-21T19:51:28.992Z,49.58
2019-04-21T19:54:00.809Z,49.62
2019-04-21T19:56:25.954Z,49.50
2019-04-21T19:58:59.098Z,50.27
2019-04-21T20:01:33.030Z,50.46
2019-04-21T20:04:08.449Z,50.39
2019-04-21T20:06:54.630Z,50.64
2019-04-21T20:09:37.186Z,50.48
2019-04-21T20:12:09.527Z,50.17
2019-04-21T20:17:17.733Z,51.28
2019-04-21T20:19:42.445Z,51.68
2019-04-21T20:22:16.843Z,52.15
2019-04-21T20:24:59.595Z,52.05
2019-04-21T20:27:34.791Z,52.09
2019-04-21T20:30:21.348Z,51.59
2019-04-21T20:32:56.572Z,51.61
2019-04-21T20:35:38.242Z,52.56
2019-04-21T20:38:05.168Z,52.07
2019-04-21T20:40:36.222Z,53.37
2019-04-21T20:43:16.256Z,53.77
2019-04-21T20:45:53.699Z,54.56
2019-04-21T20:48:21.025Z,54.70
2019-04-21T20:51:00.594Z,54.90
2019-04-21T20:53:37.652Z,55.29
2019-04-21T20:56:04.697Z,55.98
2019-04-21T20:58:43.538Z,56.16
2019-04-21T21:01:36.228Z,56.46
2019-04-21T21:03:56.038Z,56.64
2019-04-21T21:06:32.893Z,57.66
2019-04-21T21:09:04.877Z,57.42
2019-04-21T21:11:53.650Z,57.93
2019-04-21T21:14:18.653Z,57.59
2019-04-21T21:17:01.318Z,57.46
2019-04-21T21:19:37.774Z,57.59
2019-04-21T21:21:59.100Z,58.58
2019-04-21T21:24:44.724Z,58.49
2019-04-21T21:27:14.188Z,58.50
2019-04-21T21:29:49.857Z,59.12
2019-04-21T21:32:29.146Z,58.82
2019-04-21T21:35:00.910Z,58.39
2019-04-21T21:37:37.008Z,58.87
2019-04-21T21:40:09.410Z,58.89
2019-04-21T21:42:34.333Z,59.16
2019-04-21T21:45:12.546Z,58.77
2019-04-21T21:47:56.267Z,58.44
2019-04-21T21:50:26.056Z,59.15
2019-04-21T21:53:00.769Z,59.50
2019-04-21T21:55:32.337Z,59.96
2019-04-21T21:58:08.485Z,60.51
2019-04-21T22:00:49.864Z,60.09
2019-04-21T22:03:27.416Z,59.88
2019-04-21T22:06:02.150Z,59.85
2019-04-21T22:08:28.302Z,59.09
2019-04-21T22:11:01.505Z,58.97
2019-04-21T22:13:46.174Z,59.63
2019-04-21T22:16:14.000Z,60.13
2019-04-21T22:19:05.640Z,59.71
2019-04-21T22:21:41.616Z,59.12
2019-04-21T22:24:03.548Z,59.00
2019-04-21T22:26:31.299Z,59.23
2019-04-21T22:29:05.626Z,59.83
2019-04-21T22:31:41.574Z,61.07
2019-04-21T22:34:17.989Z,61.56
2019-04-21T22:37:01.276Z,61.21
2019-04-21T22:39:44.639Z,61.20
2019-04-21T22:42:11.182Z,60.92
2019-04-21T22:44:36.961Z,61.16
2019-04-21T22:47:16.902Z,61.44
2019-04-21T22:49:46.487Z,61.36
2019-04-21T22:52:24.008Z,61.75
2019-04-21T22:54:56.113Z,61.94
2019-04-21T22:57:37.808Z,61.94
2019-04-21T23:00:10.778Z,62.83
2019-04-21T23:02:41.080Z,61.99
2019-04-21T23:05:22.279Z,61.79
2019-04-21T23:07:56.680Z,61.60
2019-04-21T23:10:27.406Z,62.04
2019-04-21T23:13:09.694Z,62.62
2019-04-21T23:15:43.885Z,63.56
2019-04-21T23:18:27.329Z,63.38
2019-04-21T23:21:03.518Z,63.83
2019-04-21T23:23:44.324Z,64.69
2019-04-21T23:26:18.184Z,63.72
2019-04-21T23:28:55.731Z,63.68
2019-04-21T23:31:31.032Z,63.88
2019-04-21T23:33:44.097Z,63.54
2019-04-21T23:36:22.614Z,63.74
2019-04-21T23:38:55.058Z,63.99
2019-04-21T23:41:36.113Z,64.63
2019-04-21T23:44:06.892Z,65.70
2019-04-21T23:46:39.165Z,66.62
2019-04-21T23:49:28.333Z,67.09
2019-04-21T23:51:56.731Z,67.40
2019-04-21T23:54:23.309Z,66.90
2019-04-21T23:56:57.876Z,67.81
2019-04-21T23:59:38.687Z,68.07
